createdAt,value
2019-05-17T00:01:10.738Z,99.90
2019-05-17T00:03:41.834Z,99.90
2019-05-17T00:06:13.263Z,99.90
2019-05-17T00:08:44.130Z,99.90
2019-05-17T00:11:16.827Z,99.90
2019-05-17T00:13:48.269Z,99.90
2019-05-17T00:16:19.093Z,99.90
2019-05-17T00:18:50.169Z,99.90
2019-05-17T00:21:20.999Z,99.90
2019-05-17T00:23:52.158Z,99.90
2019-05-17T00:26:22.924Z,99.90
2019-05-17T00:28:56.172Z,99.90
2019-05-17T00:31:27.109Z,99.90
2019-05-17T00:33:57.966Z,99.90
2019-05-17T00:36:29.684Z,99.90
2019-05-17T00:39:16.618Z,99.90
2019-05-17T00:44:33.429Z,99.90
2019-05-17T00:47:06.596Z,99.90
2019-05-17T00:49:37.339Z,99.90
2019-05-17T00:52:08.068Z,99.90
2019-05-17T00:54:38.853Z,99.90
2019-05-17T00:57:09.658Z,99.90
2019-05-17T00:59:40.646Z,99.90
2019-05-17T01:02:12.134Z,99.90
2019-05-17T01:04:43.009Z,99.90
2019-05-17T01:07:13.789Z,99.90
2019-05-17T01:09:44.623Z,99.90
2019-05-17T01:12:16.469Z,99.90
2019-05-17T01:14:47.383Z,99.90
2019-05-17T01:17:18.184Z,99.90
2019-05-17T01:19:49.009Z,99.90
2019-05-17T01:22:19.783Z,99.90
2019-05-17T01:24:50.509Z,99.90
2019-05-17T01:27:21.714Z,99.90
2019-05-17T01:29:52.449Z,99.90
2019-05-17T01:32:23.506Z,99.90
2019-05-17T01:34:56.387Z,99.90
2019-05-17T01:37:27.693Z,99.90
2019-05-17T01:39:58.739Z,99.90
2019-05-17T01:42:30.049Z,99.90
2019-05-17T01:45:01.128Z,99.90
2019-05-17T01:47:32.519Z,99.90
2019-05-17T01:50:03.724Z,99.90
2019-05-17T01:52:37.036Z,99.90
2019-05-17T01:55:07.973Z,99.90
2019-05-17T01:57:39.181Z,99.90
2019-05-17T02:00:10.996Z,99.90
2019-05-17T02:02:43.688Z,99.90
2019-05-17T02:05:17.271Z,99.90
2019-05-17T02:07:48.958Z,99.90
2019-05-17T02:10:20.034Z,99.90
2019-05-17T02:12:50.853Z,99.90
2019-05-17T02:15:22.858Z,99.90
2019-05-17T02:17:53.680Z,99.90
2019-05-17T02:20:24.690Z,99.90
2019-05-17T02:22:56.473Z,99.90
2019-05-17T02:25:27.485Z,99.90
2019-05-17T02:27:58.928Z,99.90
2019-05-17T02:30:33.482Z,99.90
2019-05-17T02:33:03.848Z,99.90
2019-05-17T02:35:34.890Z,99.90
2019-05-17T02:38:06.646Z,99.90
2019-05-17T02:40:37.651Z,99.90
2019-05-17T02:43:08.987Z,99.90
2019-05-17T02:45:43.272Z,99.90
2019-05-17T02:48:13.374Z,99.90
2019-05-17T02:50:48.181Z,99.90
2019-05-17T02:53:17.823Z,99.90
2019-05-17T02:55:48.795Z,99.90
2019-05-17T02:58:23.051Z,99.90
2019-05-17T03:00:53.439Z,99.90
2019-05-17T03:03:24.499Z,99.90
2019-05-17T03:05:55.866Z,99.90
2019-05-17T03:08:27.255Z,99.90
2019-05-17T03:10:58.444Z,99.90
2019-05-17T03:13:32.668Z,99.90
2019-05-17T03:16:03.340Z,99.90
2019-05-17T03:18:34.864Z,99.90
2019-05-17T03:21:05.691Z,99.90
2019-05-17T03:23:36.614Z,99.90
2019-05-17T03:26:07.885Z,99.90
2019-05-17T03:28:42.454Z,99.90
2019-05-17T03:31:16.980Z,99.90
2019-05-17T03:33:46.289Z,99.90
2019-05-17T03:36:18.033Z,99.90
2019-05-17T03:38:49.671Z,99.90
2019-05-17T03:41:27.899Z,99.90
2019-05-17T03:43:53.673Z,99.90
2019-05-17T03:46:24.770Z,99.90
2019-05-17T03:48:56.055Z,99.90
2019-05-17T03:51:27.282Z,99.90
2019-05-17T03:53:58.408Z,99.90
2019-05-17T03:56:32.703Z,99.90
2019-05-17T03:59:03.855Z,99.90
2019-05-17T04:01:35.620Z,99.90
2019-05-17T04:04:06.443Z,99.90
2019-05-17T04:06:37.809Z,99.90
2019-05-17T04:09:09.224Z,99.90
2019-05-17T04:11:42.711Z,99.90
2019-05-17T04:14:13.877Z,99.90
2019-05-17T04:16:45.054Z,99.90
2019-05-17T04:19:16.306Z,99.90
2019-05-17T04:21:47.481Z,99.90
2019-05-17T04:24:18.349Z,99.90
2019-05-17T04:26:52.032Z,99.90
2019-05-17T04:29:22.858Z,99.90
2019-05-17T04:31:54.672Z,99.90
2019-05-17T04:34:25.494Z,99.90
2019-05-17T04:36:56.319Z,99.90
2019-05-17T04:39:27.269Z,99.90
2019-05-17T04:41:58.240Z,99.90
2019-05-17T04:44:32.026Z,99.90
2019-05-17T04:47:03.090Z,99.90
2019-05-17T04:49:35.030Z,99.90
2019-05-17T04:52:07.049Z,99.90
2019-05-17T04:54:37.859Z,99.90
2019-05-17T04:57:09.295Z,99.90
2019-05-17T04:59:43.171Z,99.90
2019-05-17T05:12:43.641Z,99.90
2019-05-17T05:15:14.944Z,99.90
2019-05-17T05:17:45.890Z,99.90
2019-05-17T05:20:16.714Z,99.90
2019-05-17T05:22:47.474Z,99.90
2019-05-17T05:25:18.309Z,99.90
2019-05-17T05:27:49.092Z,99.90
2019-05-17T05:30:22.407Z,99.90
2019-05-17T05:32:52.514Z,99.90
2019-05-17T05:35:23.238Z,99.90
2019-05-17T05:37:54.333Z,99.90
2019-05-17T05:40:25.189Z,99.90
2019-05-17T05:42:56.048Z,99.90
2019-05-17T05:45:26.908Z,99.90
2019-05-17T05:47:57.893Z,99.90
2019-05-17T05:50:28.723Z,99.90
2019-05-17T05:53:01.799Z,99.90
2019-05-17T05:55:32.277Z,99.90
2019-05-17T05:58:03.117Z,99.90
2019-05-17T06:00:33.858Z,99.90
2019-05-17T06:03:04.676Z,99.90
2019-05-17T06:05:35.513Z,99.90
2019-05-17T06:08:06.194Z,99.90
2019-05-17T06:10:39.446Z,99.90
2019-05-17T06:13:09.488Z,99.90
2019-05-17T06:15:42.666Z,99.90
2019-05-17T06:18:12.768Z,99.90
2019-05-17T06:20:43.693Z,99.90
2019-05-17T06:23:14.379Z,99.90
2019-05-17T06:25:45.117Z,99.90
2019-05-17T06:28:15.988Z,99.90
2019-05-17T06:30:46.684Z,99.90
2019-05-17T06:33:29.927Z,99.90
2019-05-17T06:35:52.366Z,99.90
2019-05-17T06:38:22.581Z,99.90
2019-05-17T06:40:53.363Z,99.90
2019-05-17T06:43:24.128Z,99.90
2019-05-17T06:45:54.818Z,99.90
2019-05-17T06:48:25.478Z,99.90
2019-05-17T06:50:56.378Z,99.90
2019-05-17T06:53:27.183Z,99.90
2019-05-17T06:55:58.158Z,99.90
2019-05-17T06:58:31.392Z,99.90
2019-05-17T07:01:01.482Z,99.90
2019-05-17T07:03:32.264Z,99.90
2019-05-17T07:06:04.559Z,99.90
2019-05-17T07:08:35.323Z,99.90
2019-05-17T07:11:06.173Z,99.90
2019-05-17T07:13:39.421Z,99.90
2019-05-17T07:16:10.229Z,99.90
2019-05-17T07:18:41.173Z,99.90
2019-05-17T07:21:11.965Z,99.90
2019-05-17T07:23:42.734Z,99.90
2019-05-17T07:26:13.654Z,99.90
2019-05-17T07:28:44.518Z,99.90
2019-05-17T07:31:15.289Z,99.90
2019-05-17T07:33:46.088Z,99.90
2019-05-17T07:36:16.788Z,99.90
2019-05-17T07:38:50.339Z,99.90
2019-05-17T07:41:20.384Z,99.90
2019-05-17T07:43:51.274Z,99.90
2019-05-17T07:46:22.059Z,99.90
2019-05-17T07:48:53.049Z,99.90
2019-05-17T07:51:23.964Z,99.90
2019-05-17T07:53:54.772Z,99.90
2019-05-17T07:56:25.666Z,99.90
2019-05-17T07:58:56.483Z,99.90
2019-05-17T08:01:29.527Z,99.90
2019-05-17T08:04:00.597Z,99.90
2019-05-17T08:06:31.662Z,99.90
2019-05-17T08:09:04.416Z,99.90
2019-05-17T08:11:34.874Z,99.90
2019-05-17T08:14:06.199Z,99.90
2019-05-17T08:16:39.375Z,99.90
2019-05-17T08:19:09.812Z,99.90
2019-05-17T08:21:40.576Z,99.90
2019-05-17T08:24:11.259Z,99.90
2019-05-17T08:26:42.069Z,99.90
2019-05-17T08:29:12.904Z,99.90
2019-05-17T08:31:43.656Z,99.90
2019-05-17T08:34:14.458Z,99.90
2019-05-17T08:36:45.183Z,99.90
2019-05-17T08:39:15.999Z,99.90
2019-05-17T08:41:46.744Z,99.90
2019-05-17T08:44:19.277Z,99.90
2019-05-17T08:46:50.160Z,99.90
2019-05-17T08:49:20.868Z,99.90
2019-05-17T08:51:51.538Z,99.90
2019-05-17T08:54:22.334Z,99.90
2019-05-17T08:56:53.184Z,99.90
2019-05-17T08:59:23.994Z,99.90
2019-05-17T09:01:54.768Z,99.90
2019-05-17T09:04:25.629Z,99.90
2019-05-17T09:06:56.403Z,99.90
2019-05-17T09:09:27.178Z,99.90
2019-05-17T09:11:59.616Z,99.90
2019-05-17T09:14:30.565Z,99.90
2019-05-17T09:17:01.346Z,99.90
2019-05-17T09:19:32.119Z,99.90
2019-05-17T09:22:02.949Z,99.90
2019-05-17T09:24:33.728Z,99.90
2019-05-17T09:27:04.513Z,99.90
2019-05-17T09:29:35.418Z,99.90
2019-05-17T09:32:06.263Z,99.90
2019-05-17T09:34:37.058Z,99.90
2019-05-17T09:37:09.813Z,99.90
2019-05-17T09:39:41.059Z,99.90
2019-05-17T09:42:11.929Z,99.90
2019-05-17T09:44:42.854Z,99.90
2019-05-17T09:47:13.619Z,99.90
2019-05-17T09:49:44.350Z,99.90
2019-05-17T09:52:14.984Z,99.90
2019-05-17T09:54:45.778Z,99.90
2019-05-17T09:57:16.794Z,99.90
2019-05-17T09:59:49.485Z,99.90
2019-05-17T10:02:20.443Z,99.90
2019-05-17T10:04:51.279Z,99.90
2019-05-17T10:07:22.024Z,99.90
2019-05-17T10:09:53.323Z,99.90
2019-05-17T10:12:24.239Z,99.90
2019-05-17T10:14:55.074Z,99.90
2019-05-17T10:17:25.966Z,99.90
2019-05-17T10:19:56.719Z,99.90
2019-05-17T10:22:27.558Z,99.90
2019-05-17T10:25:00.192Z,99.90
2019-05-17T10:27:30.608Z,99.90
2019-05-17T10:30:01.389Z,99.90
2019-05-17T10:32:32.184Z,99.90
2019-05-17T10:35:02.895Z,99.90
2019-05-17T10:37:33.744Z,99.90
2019-05-17T10:40:04.553Z,99.90
2019-05-17T10:42:35.328Z,99.90
2019-05-17T10:45:06.939Z,99.90
2019-05-17T10:47:39.671Z,99.90
2019-05-17T10:50:11.189Z,99.90
2019-05-17T10:52:41.894Z,99.90
2019-05-17T10:55:12.715Z,99.90
2019-05-17T10:57:43.486Z,99.90
2019-05-17T11:00:14.473Z,99.90
2019-05-17T11:02:45.264Z,99.90
2019-05-17T11:05:16.316Z,99.90
2019-05-17T11:07:47.023Z,99.90
2019-05-17T11:10:19.451Z,99.90
2019-05-17T11:12:50.408Z,99.90
2019-05-17T11:15:21.114Z,99.90
2019-05-17T11:17:51.828Z,99.90
2019-05-17T11:20:22.911Z,99.90
2019-05-17T11:22:53.783Z,99.90
2019-05-17T11:25:24.645Z,99.90
2019-05-17T11:27:55.409Z,99.90
2019-05-17T11:30:26.316Z,99.90
2019-05-17T11:32:57.020Z,99.90
2019-05-17T11:35:27.833Z,99.90
2019-05-17T11:37:58.443Z,99.90
2019-05-17T11:40:29.223Z,99.90
2019-05-17T11:43:00.059Z,99.90
2019-05-17T11:45:32.797Z,99.90
2019-05-17T11:48:03.431Z,99.90
2019-05-17T11:50:34.243Z,99.90
2019-05-17T11:53:05.028Z,99.90
2019-05-17T11:55:35.779Z,99.90
2019-05-17T11:58:06.733Z,99.90
2019-05-17T12:00:37.606Z,99.90
2019-05-17T12:03:08.478Z,99.90
2019-05-17T12:05:39.444Z,99.90
2019-05-17T12:08:10.129Z,99.90
2019-05-17T12:10:40.963Z,99.90
2019-05-17T12:13:11.889Z,99.90
2019-05-17T12:15:45.351Z,99.90
2019-05-17T12:18:15.974Z,99.80
2019-05-17T12:20:46.957Z,99.10
2019-05-17T12:23:17.597Z,99.90
2019-05-17T12:25:48.347Z,99.90
2019-05-17T12:28:19.044Z,99.10
2019-05-17T12:30:49.707Z,99.40
2019-05-17T12:33:20.595Z,99.80
2019-05-17T12:35:51.219Z,98.60
2019-05-17T12:38:21.979Z,97.40
2019-05-17T12:40:52.851Z,97.50
2019-05-17T12:43:23.669Z,98.50
2019-05-17T12:46:00.915Z,99.40
2019-05-17T12:48:26.818Z,94.30
2019-05-17T12:50:57.659Z,94.40
2019-05-17T12:53:28.393Z,92.90
2019-05-17T12:55:59.028Z,95.10
2019-05-17T12:58:29.952Z,95.10
2019-05-17T13:01:00.744Z,96.10
2019-05-17T13:03:31.613Z,96.70
2019-05-17T13:06:02.369Z,96.80
2019-05-17T13:08:33.288Z,97.40
2019-05-17T13:11:04.133Z,98.00
2019-05-17T13:13:34.910Z,97.60
2019-05-17T13:16:17.527Z,97.70
2019-05-17T13:18:38.281Z,98.80
2019-05-17T13:21:09.154Z,97.10
2019-05-17T13:23:39.899Z,97.20
2019-05-17T13:26:10.722Z,98.30
2019-05-17T13:28:41.550Z,98.00
2019-05-17T13:31:12.484Z,99.30
2019-05-17T13:33:43.842Z,98.40
2019-05-17T13:36:14.619Z,98.40
2019-05-17T13:38:45.394Z,97.80
2019-05-17T13:41:16.094Z,99.00
2019-05-17T13:43:46.594Z,99.90
2019-05-17T13:46:30.718Z,99.90
2019-05-17T13:48:49.685Z,99.90
2019-05-17T13:51:20.369Z,99.90
2019-05-17T13:53:51.114Z,99.90
2019-05-17T13:56:22.081Z,99.90
2019-05-17T13:58:52.882Z,99.90
2019-05-17T14:01:23.674Z,99.90
2019-05-17T14:03:54.646Z,99.90
2019-05-17T14:06:25.388Z,99.90
2019-05-17T14:08:56.119Z,99.90
2019-05-17T14:11:26.929Z,99.90
2019-05-17T14:13:57.739Z,99.90
2019-05-17T14:16:28.554Z,99.90
2019-05-17T14:18:59.365Z,99.90
2019-05-17T14:21:30.164Z,99.90
2019-05-17T14:24:01.014Z,99.90
2019-05-17T14:26:31.853Z,99.90
2019-05-17T14:29:02.920Z,99.90
2019-05-17T14:31:33.638Z,99.90
2019-05-17T14:34:04.720Z,99.90
2019-05-17T14:36:35.449Z,99.90
2019-05-17T14:39:07.861Z,99.90
2019-05-17T14:41:38.774Z,99.90
2019-05-17T14:44:09.854Z,99.90
2019-05-17T14:46:40.899Z,99.90
2019-05-17T14:49:11.785Z,99.90
2019-05-17T14:51:42.537Z,99.90
2019-05-17T14:54:13.333Z,99.90
2019-05-17T14:56:44.250Z,99.90
2019-05-17T14:59:15.152Z,99.90
2019-05-17T15:01:45.923Z,99.90
2019-05-17T15:04:17.024Z,99.90
2019-05-17T15:06:47.940Z,99.90
2019-05-17T15:09:19.006Z,99.90
2019-05-17T15:11:49.939Z,99.90
2019-05-17T15:14:20.775Z,99.90
2019-05-17T15:16:51.574Z,99.90
2019-05-17T15:19:22.539Z,99.90
2019-05-17T15:21:53.641Z,99.90
2019-05-17T15:24:24.500Z,99.90
2019-05-17T15:27:05.456Z,99.90
2019-05-17T15:29:27.934Z,99.90
2019-05-17T15:31:58.874Z,99.90
2019-05-17T15:34:29.919Z,99.90
2019-05-17T15:37:00.734Z,99.90
2019-05-17T15:39:31.528Z,99.90
2019-05-17T15:42:02.579Z,99.90
2019-05-17T15:44:33.419Z,99.90
2019-05-17T15:47:04.233Z,99.90
2019-05-17T15:49:35.183Z,99.90
2019-05-17T15:52:06.054Z,99.90
2019-05-17T15:54:36.955Z,99.90
2019-05-17T15:57:07.887Z,99.90
2019-05-17T15:59:38.747Z,99.90
2019-05-17T16:02:09.640Z,99.90
2019-05-17T16:04:40.570Z,99.90
2019-05-17T16:07:11.394Z,99.90
2019-05-17T16:09:42.396Z,99.90
2019-05-17T16:12:13.343Z,99.90
2019-05-17T16:14:44.148Z,99.90
2019-05-17T16:17:14.979Z,99.90
2019-05-17T16:19:45.876Z,99.90
2019-05-17T16:22:16.903Z,99.90
2019-05-17T16:24:47.688Z,99.90
2019-05-17T16:27:18.476Z,99.90
2019-05-17T16:29:49.314Z,99.90
2019-05-17T16:32:20.214Z,99.90
2019-05-17T16:34:51.265Z,99.90
2019-05-17T16:37:22.175Z,99.90
2019-05-17T16:39:53.009Z,99.90
2019-05-17T16:42:23.903Z,99.90
2019-05-17T16:44:54.675Z,99.90
2019-05-17T16:47:25.382Z,99.90
2019-05-17T16:49:56.156Z,99.90
2019-05-17T16:52:27.112Z,99.90
2019-05-17T16:54:58.155Z,99.90
2019-05-17T16:57:29.164Z,99.90
2019-05-17T17:00:00.087Z,99.90
2019-05-17T17:02:30.874Z,99.90
2019-05-17T17:05:01.847Z,99.90
2019-05-17T17:07:32.779Z,99.90
2019-05-17T17:10:03.610Z,99.90
2019-05-17T17:12:34.384Z,99.90
2019-05-17T17:15:05.562Z,99.90
2019-05-17T17:17:36.569Z,99.90
2019-05-17T17:20:07.729Z,99.90
2019-05-17T17:22:38.698Z,99.90
2019-05-17T17:25:09.774Z,99.90
2019-05-17T17:27:40.767Z,99.90
2019-05-17T17:30:12.345Z,99.90
2019-05-17T17:32:43.264Z,99.90
2019-05-17T17:35:14.276Z,99.90
2019-05-17T17:37:45.064Z,99.90
2019-05-17T17:40:20.990Z,99.90
2019-05-17T17:42:51.927Z,99.90
2019-05-17T17:45:24.563Z,99.90
2019-05-17T17:47:55.484Z,99.90
2019-05-17T17:50:26.464Z,99.90
2019-05-17T17:52:57.609Z,99.90
2019-05-17T17:55:28.443Z,99.90
2019-05-17T17:57:59.289Z,99.90
2019-05-17T18:00:30.187Z,99.90
2019-05-17T18:03:01.155Z,99.90
2019-05-17T18:05:31.914Z,99.90
2019-05-17T18:08:02.809Z,99.90
2019-05-17T18:10:35.049Z,99.90
2019-05-17T18:13:06.079Z,99.90
2019-05-17T18:15:43.998Z,99.90
2019-05-17T18:18:15.443Z,99.90
2019-05-17T18:20:46.324Z,99.90
2019-05-17T18:23:22.460Z,99.90
2019-05-17T18:25:49.733Z,99.90
2019-05-17T18:28:20.629Z,99.90
2019-05-17T18:30:51.635Z,99.90
2019-05-17T18:33:22.614Z,99.90
2019-05-17T18:35:53.659Z,99.90
2019-05-17T18:38:27.234Z,99.90
2019-05-17T18:40:58.137Z,99.90
2019-05-17T18:43:28.960Z,99.90
2019-05-17T18:45:59.774Z,99.90
2019-05-17T18:48:30.704Z,99.90
2019-05-17T18:51:01.530Z,99.90
2019-05-17T18:53:32.379Z,99.90
2019-05-17T18:56:03.454Z,99.90
2019-05-17T18:58:34.298Z,99.90
2019-05-17T19:01:05.149Z,99.90
2019-05-17T19:03:36.100Z,99.90
2019-05-17T19:06:06.885Z,99.90
2019-05-17T19:08:37.905Z,99.90
2019-05-17T19:11:08.830Z,99.90
2019-05-17T19:13:39.837Z,99.90
2019-05-17T19:16:10.914Z,99.90
2019-05-17T19:18:41.834Z,99.90
2019-05-17T19:21:12.899Z,99.90
2019-05-17T19:23:43.800Z,99.90
2019-05-17T19:26:14.830Z,99.90
2019-05-17T19:28:45.724Z,99.90
2019-05-17T19:31:16.454Z,99.90
2019-05-17T19:33:47.349Z,99.90
2019-05-17T19:36:18.166Z,99.90
2019-05-17T19:38:48.954Z,99.90
2019-05-17T19:41:19.785Z,99.90
2019-05-17T19:43:50.507Z,99.90
2019-05-17T19:46:22.130Z,99.90
2019-05-17T19:48:53.084Z,99.90
2019-05-17T19:51:24.019Z,99.90
2019-05-17T19:53:54.854Z,99.90
2019-05-17T19:56:25.795Z,99.90
2019-05-17T19:58:56.644Z,99.90
2019-05-17T20:01:27.494Z,99.90
2019-05-17T20:03:58.545Z,99.90
2019-05-17T20:06:29.413Z,99.90
2019-05-17T20:09:02.729Z,99.90
2019-05-17T20:11:34.721Z,99.90
2019-05-17T20:14:05.979Z,99.90
2019-05-17T20:16:36.899Z,99.90
2019-05-17T20:19:07.859Z,99.90
2019-05-17T20:21:38.806Z,99.90
2019-05-17T20:24:09.714Z,99.90
2019-05-17T20:26:40.714Z,99.90
2019-05-17T20:29:11.621Z,99.90
2019-05-17T20:31:42.660Z,99.90
2019-05-17T20:34:13.570Z,99.90
2019-05-17T20:36:44.602Z,99.90
2019-05-17T20:39:15.394Z,99.90
2019-05-17T20:41:46.163Z,99.90
2019-05-17T20:44:16.969Z,99.90
2019-05-17T20:46:48.014Z,99.90
2019-05-17T20:49:18.910Z,99.90
2019-05-17T20:51:49.949Z,99.90
2019-05-17T20:54:20.734Z,99.90
2019-05-17T20:56:51.634Z,99.90
2019-05-17T20:59:22.764Z,99.90
2019-05-17T21:01:53.745Z,99.90
2019-05-17T21:04:24.734Z,99.90
2019-05-17T21:06:55.499Z,99.90
2019-05-17T21:09:26.479Z,99.90
2019-05-17T21:11:57.420Z,99.90
2019-05-17T21:14:28.726Z,99.90
2019-05-17T21:16:59.624Z,99.90
2019-05-17T21:19:30.649Z,99.90
2019-05-17T21:22:01.669Z,99.90
2019-05-17T21:24:32.618Z,99.90
2019-05-17T21:27:03.613Z,99.90
2019-05-17T21:29:34.349Z,99.90
2019-05-17T21:32:05.271Z,99.90
2019-05-17T21:34:36.171Z,99.90
2019-05-17T21:37:07.009Z,99.90
2019-05-17T21:39:37.943Z,99.90
2019-05-17T21:42:08.634Z,99.90
2019-05-17T21:44:39.433Z,99.90
2019-05-17T21:47:10.390Z,99.90
2019-05-17T21:49:41.204Z,99.90
2019-05-17T21:52:11.914Z,99.90
2019-05-17T21:54:42.629Z,99.90
2019-05-17T21:57:13.298Z,99.90
2019-05-17T21:59:43.985Z,99.90
2019-05-17T22:02:14.799Z,99.90
2019-05-17T22:04:45.559Z,99.90
2019-05-17T22:07:16.370Z,99.90
2019-05-17T22:09:47.249Z,99.90
2019-05-17T22:12:18.269Z,99.90
2019-05-17T22:14:49.209Z,99.90
2019-05-17T22:17:20.333Z,99.90
2019-05-17T22:19:51.186Z,99.90
2019-05-17T22:22:22.434Z,99.90
2019-05-17T22:24:53.315Z,99.90
2019-05-17T22:27:24.029Z,99.90
2019-05-17T22:29:54.933Z,99.90
2019-05-17T22:32:25.929Z,99.90
2019-05-17T22:34:56.634Z,99.90
2019-05-17T22:37:27.301Z,99.90
2019-05-17T22:39:58.079Z,99.90
2019-05-17T22:42:28.914Z,99.90
2019-05-17T22:44:59.639Z,99.90
2019-05-17T22:47:30.493Z,99.90
2019-05-17T22:50:01.385Z,99.90
2019-05-17T22:52:32.169Z,99.90
2019-05-17T22:55:03.117Z,99.90
2019-05-17T22:57:33.929Z,99.90
2019-05-17T23:00:05.203Z,99.90
2019-05-17T23:02:36.079Z,99.90
2019-05-17T23:05:07.149Z,99.90
2019-05-17T23:07:37.922Z,99.90
2019-05-17T23:10:08.881Z,99.90
2019-05-17T23:12:39.749Z,99.90
2019-05-17T23:15:10.890Z,99.90
2019-05-17T23:17:41.698Z,99.90
2019-05-17T23:20:12.559Z,99.90
2019-05-17T23:22:43.502Z,99.90
2019-05-17T23:25:14.713Z,99.90
2019-05-17T23:27:45.529Z,99.90
2019-05-17T23:30:16.420Z,99.90
2019-05-17T23:32:47.320Z,99.90
2019-05-17T23:35:18.104Z,99.90
2019-05-17T23:37:48.899Z,99.90
2019-05-17T23:40:19.823Z,99.90
2019-05-17T23:42:50.734Z,99.90
2019-05-17T23:45:21.502Z,99.90
2019-05-17T23:47:52.388Z,99.90
2019-05-17T23:50:23.088Z,99.90
2019-05-17T23:52:53.809Z,99.90
2019-05-17T23:55:24.689Z,99.90
2019-05-17T23:57:55.550Z,99.90
